sensor_id;sensor_type;location;lat;lon;timestamp;pressure;altitude;pressure_sealevel;temperature;humidity
64053;BME280;50299;49.524;8.536;2023-05-19T00:00:51;101132.88;;;8.25;45.67
64053;BME280;50299;49.524;8.536;2023-05-19T00:03:18;101142.13;;;7.91;45.20
64053;BME280;50299;49.524;8.536;2023-05-19T00:05:47;101138.44;;;8.20;47.47
64053;BME280;50299;49.524;8.536;2023-05-19T00:08:17;101137.84;;;8.04;45.90
64053;BME280;50299;49.524;8.536;2023-05-19T00:10:45;101134.44;;;8.31;56.19
64053;BME280;50299;49.524;8.536;2023-05-19T00:13:13;101135.91;;;8.61;48.84
64053;BME280;50299;49.524;8.536;2023-05-19T00:15:40;101134.88;;;8.57;45.55
64053;BME280;50299;49.524;8.536;2023-05-19T00:18:06;101133.88;;;8.10;50.34
64053;BME280;50299;49.524;8.536;2023-05-19T00:20:34;101138.34;;;8.06;46.59
64053;BME280;50299;49.524;8.536;2023-05-19T00:23:00;101138.66;;;7.80;47.99
64053;BME280;50299;49.524;8.536;2023-05-19T00:25:27;101136.50;;;7.24;47.83
64053;BME280;50299;49.524;8.536;2023-05-19T00:27:53;101126.84;;;6.98;50.18
64053;BME280;50299;49.524;8.536;2023-05-19T00:30:19;101138.50;;;7.43;47.93
64053;BME280;50299;49.524;8.536;2023-05-19T00:32:48;101137.59;;;7.23;51.32
64053;BME280;50299;49.524;8.536;2023-05-19T00:35:14;101135.63;;;7.00;48.16
64053;BME280;50299;49.524;8.536;2023-05-19T00:37:41;101134.06;;;6.88;48.81
64053;BME280;50299;49.524;8.536;2023-05-19T00:40:08;101140.34;;;6.94;49.84
64053;BME280;50299;49.524;8.536;2023-05-19T00:42:35;101139.25;;;6.95;49.28
64053;BME280;50299;49.524;8.536;2023-05-19T00:45:02;101134.28;;;6.63;49.54
64053;BME280;50299;49.524;8.536;2023-05-19T00:47:28;101133.34;;;6.38;50.94
64053;BME280;50299;49.524;8.536;2023-05-19T00:49:55;101131.38;;;6.78;51.62
64053;BME280;50299;49.524;8.536;2023-05-19T00:52:21;101123.91;;;6.89;50.55
64053;BME280;50299;49.524;8.536;2023-05-19T00:54:48;101137.31;;;7.25;55.90
64053;BME280;50299;49.524;8.536;2023-05-19T00:57:16;101129.31;;;6.99;51.10
64053;BME280;50299;49.524;8.536;2023-05-19T00:59:43;101133.28;;;7.17;51.94
64053;BME280;50299;49.524;8.536;2023-05-19T01:02:09;101133.94;;;7.33;51.52
64053;BME280;50299;49.524;8.536;2023-05-19T01:04:36;101130.03;;;7.39;51.61
64053;BME280;50299;49.524;8.536;2023-05-19T01:07:04;101129.03;;;7.01;51.51
64053;BME280;50299;49.524;8.536;2023-05-19T01:09:32;101121.53;;;6.38;52.88
64053;BME280;50299;49.524;8.536;2023-05-19T01:11:59;101125.84;;;6.49;54.62
64053;BME280;50299;49.524;8.536;2023-05-19T01:14:27;101119.06;;;6.42;53.94
64053;BME280;50299;49.524;8.536;2023-05-19T01:17:02;101121.09;;;6.60;53.99
64053;BME280;50299;49.524;8.536;2023-05-19T01:25:36;101111.09;;;6.74;56.07
64053;BME280;50299;49.524;8.536;2023-05-19T01:28:15;101105.19;;;6.91;60.76
64053;BME280;50299;49.524;8.536;2023-05-19T01:30:49;101107.41;;;6.89;58.70
64053;BME280;50299;49.524;8.536;2023-05-19T01:33:20;101115.41;;;7.14;70.85
64053;BME280;50299;49.524;8.536;2023-05-19T01:35:47;101113.44;;;7.44;67.93
64053;BME280;50299;49.524;8.536;2023-05-19T01:38:16;101121.41;;;7.51;64.22
64053;BME280;50299;49.524;8.536;2023-05-19T01:40:43;101119.41;;;7.27;60.41
64053;BME280;50299;49.524;8.536;2023-05-19T01:43:16;101113.41;;;6.96;54.93
64053;BME280;50299;49.524;8.536;2023-05-19T01:45:43;101122.59;;;6.81;63.00
64053;BME280;50299;49.524;8.536;2023-05-19T01:48:10;101117.22;;;6.66;59.37
64053;BME280;50299;49.524;8.536;2023-05-19T01:50:39;101116.16;;;6.62;56.28
64053;BME280;50299;49.524;8.536;2023-05-19T01:53:06;101121.16;;;6.55;62.51
64053;BME280;50299;49.524;8.536;2023-05-19T01:55:35;101120.00;;;6.61;58.96
64053;BME280;50299;49.524;8.536;2023-05-19T01:58:09;101118.41;;;6.55;59.21
64053;BME280;50299;49.524;8.536;2023-05-19T02:00:52;101125.06;;;6.44;57.25
64053;BME280;50299;49.524;8.536;2023-05-19T02:06:31;101127.03;;;6.33;61.61
64053;BME280;50299;49.524;8.536;2023-05-19T02:09:14;101126.28;;;6.22;61.25
64053;BME280;50299;49.524;8.536;2023-05-19T02:15:04;101131.25;;;6.15;64.05
64053;BME280;50299;49.524;8.536;2023-05-19T02:17:34;101131.19;;;6.20;68.13
64053;BME280;50299;49.524;8.536;2023-05-19T02:20:06;101117.50;;;6.25;68.99
64053;BME280;50299;49.524;8.536;2023-05-19T02:22:34;101135.13;;;6.09;67.09
64053;BME280;50299;49.524;8.536;2023-05-19T02:25:01;101131.84;;;6.02;65.46
64053;BME280;50299;49.524;8.536;2023-05-19T02:27:27;101137.28;;;6.12;70.72
64053;BME280;50299;49.524;8.536;2023-05-19T02:29:55;101132.81;;;6.31;70.39
64053;BME280;50299;49.524;8.536;2023-05-19T02:32:21;101130.81;;;5.93;60.27
64053;BME280;50299;49.524;8.536;2023-05-19T02:34:47;101136.91;;;5.74;66.58
64053;BME280;50299;49.524;8.536;2023-05-19T02:37:14;101134.09;;;5.95;73.81
64053;BME280;50299;49.524;8.536;2023-05-19T02:39:41;101133.56;;;5.93;66.42
64053;BME280;50299;49.524;8.536;2023-05-19T02:42:08;101135.81;;;5.80;63.25
64053;BME280;50299;49.524;8.536;2023-05-19T02:44:35;101124.25;;;5.83;69.88
64053;BME280;50299;49.524;8.536;2023-05-19T02:47:01;101124.84;;;5.70;70.13
64053;BME280;50299;49.524;8.536;2023-05-19T02:49:28;101122.34;;;5.79;65.53
64053;BME280;50299;49.524;8.536;2023-05-19T02:52:01;101114.16;;;5.69;67.24
64053;BME280;50299;49.524;8.536;2023-05-19T02:54:32;101120.75;;;5.62;62.65
64053;BME280;50299;49.524;8.536;2023-05-19T02:56:59;101112.09;;;5.20;61.94
64053;BME280;50299;49.524;8.536;2023-05-19T02:59:26;101112.91;;;5.25;67.36
64053;BME280;50299;49.524;8.536;2023-05-19T03:01:58;101110.16;;;5.25;72.56
64053;BME280;50299;49.524;8.536;2023-05-19T03:04:26;101113.75;;;4.64;64.17
64053;BME280;50299;49.524;8.536;2023-05-19T03:06:52;101116.22;;;4.66;65.23
64053;BME280;50299;49.524;8.536;2023-05-19T03:09:19;101105.81;;;4.78;63.56
64053;BME280;50299;49.524;8.536;2023-05-19T03:11:46;101120.09;;;4.85;68.60
64053;BME280;50299;49.524;8.536;2023-05-19T03:14:12;101119.00;;;5.02;69.74
64053;BME280;50299;49.524;8.536;2023-05-19T03:16:39;101114.28;;;5.17;66.22
64053;BME280;50299;49.524;8.536;2023-05-19T03:19:08;101113.75;;;5.21;62.82
64053;BME280;50299;49.524;8.536;2023-05-19T03:21:34;101113.50;;;5.02;67.38
64053;BME280;50299;49.524;8.536;2023-05-19T03:24:01;101120.28;;;5.30;77.33
64053;BME280;50299;49.524;8.536;2023-05-19T03:26:27;101118.41;;;4.79;63.45
64053;BME280;50299;49.524;8.536;2023-05-19T03:28:56;101112.13;;;4.68;65.29
64053;BME280;50299;49.524;8.536;2023-05-19T03:31:23;101118.41;;;4.74;67.94
64053;BME280;50299;49.524;8.536;2023-05-19T03:33:49;101123.88;;;4.79;64.08
64053;BME280;50299;49.524;8.536;2023-05-19T03:36:16;101117.34;;;4.85;67.00
64053;BME280;50299;49.524;8.536;2023-05-19T03:38:42;101117.88;;;4.77;65.79
64053;BME280;50299;49.524;8.536;2023-05-19T03:41:09;101126.06;;;5.13;83.79
64053;BME280;50299;49.524;8.536;2023-05-19T03:43:35;101132.31;;;5.49;81.88
64053;BME280;50299;49.524;8.536;2023-05-19T03:46:02;101139.06;;;5.82;82.84
64053;BME280;50299;49.524;8.536;2023-05-19T03:48:28;101135.28;;;6.33;90.50
64053;BME280;50299;49.524;8.536;2023-05-19T03:50:55;101131.94;;;6.41;83.64
64053;BME280;50299;49.524;8.536;2023-05-19T03:53:21;101144.41;;;6.18;64.84
64053;BME280;50299;49.524;8.536;2023-05-19T03:55:48;101142.25;;;6.10;74.06
64053;BME280;50299;49.524;8.536;2023-05-19T03:58:15;101145.59;;;6.02;74.43
64053;BME280;50299;49.524;8.536;2023-05-19T04:00:42;101150.22;;;6.06;72.35
64053;BME280;50299;49.524;8.536;2023-05-19T04:03:08;101142.78;;;6.12;73.72
64053;BME280;50299;49.524;8.536;2023-05-19T04:05:36;101141.69;;;6.13;74.24
64053;BME280;50299;49.524;8.536;2023-05-19T04:08:02;101145.81;;;6.10;67.58
64053;BME280;50299;49.524;8.536;2023-05-19T04:10:29;101138.72;;;5.99;69.63
64053;BME280;50299;49.524;8.536;2023-05-19T04:12:56;101136.38;;;5.67;66.89
64053;BME280;50299;49.524;8.536;2023-05-19T04:15:22;101143.59;;;5.48;69.70
64053;BME280;50299;49.524;8.536;2023-05-19T04:17:49;101139.88;;;5.83;82.25
64053;BME280;50299;49.524;8.536;2023-05-19T04:20:15;101146.47;;;5.87;67.34
64053;BME280;50299;49.524;8.536;2023-05-19T04:22:42;101141.97;;;5.26;67.98
64053;BME280;50299;49.524;8.536;2023-05-19T04:25:08;101142.47;;;5.49;81.83
64053;BME280;50299;49.524;8.536;2023-05-19T04:27:35;101151.94;;;5.92;80.21
64053;BME280;50299;49.524;8.536;2023-05-19T04:30:04;101159.22;;;6.27;79.73
64053;BME280;50299;49.524;8.536;2023-05-19T04:32:31;101143.75;;;6.42;77.91
64053;BME280;50299;49.524;8.536;2023-05-19T04:34:58;101152.00;;;6.36;76.22
64053;BME280;50299;49.524;8.536;2023-05-19T04:37:25;101154.47;;;6.43;79.10
64053;BME280;50299;49.524;8.536;2023-05-19T04:39:52;101153.75;;;6.67;81.32
64053;BME280;50299;49.524;8.536;2023-05-19T04:42:19;101158.88;;;6.78;70.02
64053;BME280;50299;49.524;8.536;2023-05-19T04:44:46;101168.13;;;6.93;80.75
64053;BME280;50299;49.524;8.536;2023-05-19T04:47:14;101157.03;;;7.03;82.96
64053;BME280;50299;49.524;8.536;2023-05-19T04:49:41;101172.06;;;7.15;73.52
64053;BME280;50299;49.524;8.536;2023-05-19T04:52:09;101162.53;;;7.03;73.93
64053;BME280;50299;49.524;8.536;2023-05-19T04:54:37;101163.47;;;6.49;65.80
64053;BME280;50299;49.524;8.536;2023-05-19T04:57:04;101159.97;;;6.77;79.62
64053;BME280;50299;49.524;8.536;2023-05-19T04:59:31;101162.72;;;5.63;65.54
64053;BME280;50299;49.524;8.536;2023-05-19T05:01:58;101157.00;;;5.59;67.13
64053;BME280;50299;49.524;8.536;2023-05-19T05:04:24;101159.97;;;5.68;68.13
64053;BME280;50299;49.524;8.536;2023-05-19T05:06:51;101164.44;;;5.28;66.07
64053;BME280;50299;49.524;8.536;2023-05-19T05:09:17;101162.78;;;5.32;64.45
64053;BME280;50299;49.524;8.536;2023-05-19T05:11:45;101157.84;;;5.45;67.84
64053;BME280;50299;49.524;8.536;2023-05-19T05:14:12;101162.16;;;5.66;69.04
64053;BME280;50299;49.524;8.536;2023-05-19T05:16:38;101167.00;;;6.05;68.06
64053;BME280;50299;49.524;8.536;2023-05-19T05:19:05;101156.66;;;5.81;64.03
64053;BME280;50299;49.524;8.536;2023-05-19T05:21:32;101167.00;;;5.95;62.83
64053;BME280;50299;49.524;8.536;2023-05-19T05:23:59;101158.41;;;6.16;79.15
64053;BME280;50299;49.524;8.536;2023-05-19T05:26:30;101169.13;;;6.23;64.01
64053;BME280;50299;49.524;8.536;2023-05-19T05:28:58;101156.91;;;6.45;62.18
64053;BME280;50299;49.524;8.536;2023-05-19T05:31:25;101166.22;;;6.54;59.85
64053;BME280;50299;49.524;8.536;2023-05-19T05:33:51;101167.97;;;6.34;63.13
64053;BME280;50299;49.524;8.536;2023-05-19T05:36:18;101157.13;;;6.58;61.17
64053;BME280;50299;49.524;8.536;2023-05-19T05:38:44;101160.25;;;6.36;60.60
64053;BME280;50299;49.524;8.536;2023-05-19T05:41:11;101163.38;;;6.64;61.35
64053;BME280;50299;49.524;8.536;2023-05-19T05:43:37;101159.09;;;7.21;61.76
64053;BME280;50299;49.524;8.536;2023-05-19T05:46:03;101160.28;;;7.68;61.76
64053;BME280;50299;49.524;8.536;2023-05-19T05:48:30;101152.88;;;8.11;61.08
64053;BME280;50299;49.524;8.536;2023-05-19T05:50:58;101155.25;;;8.18;59.40
64053;BME280;50299;49.524;8.536;2023-05-19T05:53:24;101159.16;;;8.55;60.65
64053;BME280;50299;49.524;8.536;2023-05-19T05:55:52;101162.34;;;8.62;55.58
64053;BME280;50299;49.524;8.536;2023-05-19T05:58:18;101153.72;;;8.87;66.36
64053;BME280;50299;49.524;8.536;2023-05-19T06:00:46;101146.88;;;8.85;56.23
64053;BME280;50299;49.524;8.536;2023-05-19T06:03:15;101153.81;;;8.82;52.08
64053;BME280;50299;49.524;8.536;2023-05-19T06:05:42;101153.63;;;8.17;51.65
64053;BME280;50299;49.524;8.536;2023-05-19T06:08:08;101147.84;;;8.56;55.07
64053;BME280;50299;49.524;8.536;2023-05-19T06:10:35;101155.38;;;8.70;53.79
64053;BME280;50299;49.524;8.536;2023-05-19T06:13:03;101147.31;;;8.54;51.50
64053;BME280;50299;49.524;8.536;2023-05-19T06:15:30;101151.78;;;7.88;52.90
64053;BME280;50299;49.524;8.536;2023-05-19T06:17:57;101142.56;;;8.60;59.38
64053;BME280;50299;49.524;8.536;2023-05-19T06:20:24;101145.97;;;9.22;52.38
64053;BME280;50299;49.524;8.536;2023-05-19T06:22:50;101148.69;;;9.82;49.57
64053;BME280;50299;49.524;8.536;2023-05-19T06:25:17;101149.78;;;9.54;48.04
64053;BME280;50299;49.524;8.536;2023-05-19T06:27:43;101151.88;;;10.53;48.61
64053;BME280;50299;49.524;8.536;2023-05-19T06:30:10;101147.06;;;10.81;46.30
64053;BME280;50299;49.524;8.536;2023-05-19T06:32:37;101148.03;;;10.27;44.47
64053;BME280;50299;49.524;8.536;2023-05-19T06:35:04;101154.44;;;10.00;49.46
64053;BME280;50299;49.524;8.536;2023-05-19T06:37:30;101150.81;;;10.63;47.47
64053;BME280;50299;49.524;8.536;2023-05-19T06:39:57;101156.59;;;11.74;51.33
64053;BME280;50299;49.524;8.536;2023-05-19T06:42:23;101143.09;;;11.72;47.99
64053;BME280;50299;49.524;8.536;2023-05-19T06:44:51;101146.44;;;11.29;46.10
64053;BME280;50299;49.524;8.536;2023-05-19T06:47:18;101156.63;;;11.20;52.83
64053;BME280;50299;49.524;8.536;2023-05-19T06:49:45;101142.47;;;11.53;46.37
64053;BME280;50299;49.524;8.536;2023-05-19T06:52:11;101147.19;;;10.40;45.51
64053;BME280;50299;49.524;8.536;2023-05-19T06:54:37;101146.56;;;8.30;49.21
64053;BME280;50299;49.524;8.536;2023-05-19T06:57:04;101147.63;;;8.72;48.29
64053;BME280;50299;49.524;8.536;2023-05-19T06:59:30;101141.72;;;9.44;48.69
64053;BME280;50299;49.524;8.536;2023-05-19T07:01:57;101141.97;;;9.75;47.27
64053;BME280;50299;49.524;8.536;2023-05-19T07:04:23;101140.63;;;10.50;50.06
64053;BME280;50299;49.524;8.536;2023-05-19T07:06:50;101146.97;;;10.00;45.84
64053;BME280;50299;49.524;8.536;2023-05-19T07:09:16;101141.84;;;9.94;45.34
64053;BME280;50299;49.524;8.536;2023-05-19T07:11:43;101139.41;;;9.92;46.28
64053;BME280;50299;49.524;8.536;2023-05-19T07:14:10;101138.94;;;10.63;47.78
64053;BME280;50299;49.524;8.536;2023-05-19T07:16:36;101127.22;;;10.79;45.83
64053;BME280;50299;49.524;8.536;2023-05-19T07:19:03;101134.19;;;11.53;43.52
64053;BME280;50299;49.524;8.536;2023-05-19T07:21:29;101129.78;;;11.92;45.48
64053;BME280;50299;49.524;8.536;2023-05-19T07:23:55;101123.13;;;11.93;44.93
64053;BME280;50299;49.524;8.536;2023-05-19T07:26:22;101116.75;;;12.01;46.95
64053;BME280;50299;49.524;8.536;2023-05-19T07:28:48;101117.94;;;11.69;45.55
64053;BME280;50299;49.524;8.536;2023-05-19T07:31:15;101112.69;;;11.58;42.11
64053;BME280;50299;49.524;8.536;2023-05-19T07:33:42;101114.72;;;11.04;42.32
64053;BME280;50299;49.524;8.536;2023-05-19T07:36:08;101110.72;;;11.59;42.11
64053;BME280;50299;49.524;8.536;2023-05-19T07:38:35;101104.69;;;11.97;43.34
64053;BME280;50299;49.524;8.536;2023-05-19T07:41:02;101101.22;;;10.44;42.20
64053;BME280;50299;49.524;8.536;2023-05-19T07:43:29;101114.47;;;10.92;42.72
64053;BME280;50299;49.524;8.536;2023-05-19T07:45:55;101106.44;;;10.82;45.42
64053;BME280;50299;49.524;8.536;2023-05-19T07:48:22;101094.53;;;11.75;42.71
64053;BME280;50299;49.524;8.536;2023-05-19T07:50:51;101112.41;;;12.43;40.06
64053;BME280;50299;49.524;8.536;2023-05-19T07:53:18;101110.28;;;12.40;38.83
64053;BME280;50299;49.524;8.536;2023-05-19T07:55:45;101103.63;;;12.58;37.81
64053;BME280;50299;49.524;8.536;2023-05-19T07:58:11;101095.88;;;13.16;38.75
64053;BME280;50299;49.524;8.536;2023-05-19T08:00:38;101095.28;;;12.85;35.96
64053;BME280;50299;49.524;8.536;2023-05-19T08:03:06;101093.97;;;12.56;37.08
64053;BME280;50299;49.524;8.536;2023-05-19T08:05:34;101090.56;;;12.68;38.56
64053;BME280;50299;49.524;8.536;2023-05-19T08:08:01;101085.47;;;12.87;37.28
64053;BME280;50299;49.524;8.536;2023-05-19T08:10:28;101090.72;;;12.89;38.54
64053;BME280;50299;49.524;8.536;2023-05-19T08:12:54;101094.97;;;12.60;36.75
64053;BME280;50299;49.524;8.536;2023-05-19T08:15:21;101084.53;;;12.66;40.08
64053;BME280;50299;49.524;8.536;2023-05-19T08:17:47;101089.22;;;12.91;36.50
64053;BME280;50299;49.524;8.536;2023-05-19T08:20:14;101085.59;;;12.99;40.42
64053;BME280;50299;49.524;8.536;2023-05-19T08:22:40;101082.88;;;13.38;41.93
64053;BME280;50299;49.524;8.536;2023-05-19T08:25:07;101071.69;;;13.64;39.58
64053;BME280;50299;49.524;8.536;2023-05-19T08:27:34;101087.59;;;12.21;37.59
64053;BME280;50299;49.524;8.536;2023-05-19T08:30:01;101078.06;;;13.17;38.23
64053;BME280;50299;49.524;8.536;2023-05-19T08:32:28;101075.94;;;13.61;41.93
64053;BME280;50299;49.524;8.536;2023-05-19T08:34:54;101080.81;;;13.94;36.49
64053;BME280;50299;49.524;8.536;2023-05-19T08:37:20;101063.25;;;14.02;34.62
64053;BME280;50299;49.524;8.536;2023-05-19T08:39:47;101073.84;;;14.09;38.23
64053;BME280;50299;49.524;8.536;2023-05-19T08:42:14;101071.06;;;14.29;34.60
64053;BME280;50299;49.524;8.536;2023-05-19T08:44:40;101069.19;;;13.24;34.57
64053;BME280;50299;49.524;8.536;2023-05-19T08:47:09;101071.22;;;14.12;37.39
64053;BME280;50299;49.524;8.536;2023-05-19T08:49:44;101070.44;;;14.33;36.01
64053;BME280;50299;49.524;8.536;2023-05-19T08:52:21;101057.44;;;13.27;33.54
64053;BME280;50299;49.524;8.536;2023-05-19T08:55:03;101052.63;;;13.45;36.19
64053;BME280;50299;49.524;8.536;2023-05-19T08:57:31;101053.78;;;13.73;37.33
64053;BME280;50299;49.524;8.536;2023-05-19T08:59:58;101038.66;;;14.13;37.61
64053;BME280;50299;49.524;8.536;2023-05-19T09:02:26;101048.69;;;14.05;36.07
64053;BME280;50299;49.524;8.536;2023-05-19T09:04:52;101041.06;;;14.77;35.52
64053;BME280;50299;49.524;8.536;2023-05-19T09:07:20;101039.59;;;14.59;35.25
64053;BME280;50299;49.524;8.536;2023-05-19T09:09:48;101043.88;;;14.35;34.69
64053;BME280;50299;49.524;8.536;2023-05-19T09:12:14;101051.75;;;14.12;32.59
64053;BME280;50299;49.524;8.536;2023-05-19T09:14:41;101042.75;;;12.62;33.86
64053;BME280;50299;49.524;8.536;2023-05-19T09:17:08;101042.25;;;13.33;34.42
64053;BME280;50299;49.524;8.536;2023-05-19T09:19:34;101043.28;;;13.58;35.92
64053;BME280;50299;49.524;8.536;2023-05-19T10:47:05;100988.47;;;14.09;33.75
64053;BME280;50299;49.524;8.536;2023-05-19T10:49:34;100987.13;;;13.44;35.59
64053;BME280;50299;49.524;8.536;2023-05-19T10:52:02;100986.78;;;13.54;36.02
64053;BME280;50299;49.524;8.536;2023-05-19T10:54:42;100986.84;;;14.29;33.25
64053;BME280;50299;49.524;8.536;2023-05-19T10:57:16;100984.84;;;15.08;34.94
64053;BME280;50299;49.524;8.536;2023-05-19T10:59:43;100977.53;;;15.52;35.12
64053;BME280;50299;49.524;8.536;2023-05-19T11:05:13;100975.19;;;14.69;36.87
64053;BME280;50299;49.524;8.536;2023-05-19T11:07:41;100960.94;;;15.56;36.88
64053;BME280;50299;49.524;8.536;2023-05-19T11:10:09;100958.28;;;16.28;32.47
64053;BME280;50299;49.524;8.536;2023-05-19T11:12:41;100962.66;;;16.13;33.60
64053;BME280;50299;49.524;8.536;2023-05-19T11:15:13;100961.00;;;16.40;33.93
64053;BME280;50299;49.524;8.536;2023-05-19T11:17:40;100956.78;;;16.02;33.66
64053;BME280;50299;49.524;8.536;2023-05-19T11:20:24;100962.28;;;16.87;33.17
64053;BME280;50299;49.524;8.536;2023-05-19T11:23:08;100960.47;;;17.42;34.53
64053;BME280;50299;49.524;8.536;2023-05-19T11:25:49;100959.75;;;17.64;32.73
64053;BME280;50299;49.524;8.536;2023-05-19T11:28:18;100960.09;;;18.37;29.10
64053;BME280;50299;49.524;8.536;2023-05-19T11:30:47;100962.47;;;18.35;27.94
64053;BME280;50299;49.524;8.536;2023-05-19T11:33:19;100956.19;;;18.03;34.09
64053;BME280;50299;49.524;8.536;2023-05-19T11:35:46;100948.31;;;18.47;30.27
64053;BME280;50299;49.524;8.536;2023-05-19T11:38:16;100957.66;;;17.42;28.14
64053;BME280;50299;49.524;8.536;2023-05-19T11:40:44;100949.78;;;17.32;43.52
64053;BME280;50299;49.524;8.536;2023-05-19T11:43:12;100956.94;;;17.99;31.70
64053;BME280;50299;49.524;8.536;2023-05-19T11:45:39;100955.78;;;15.70;31.89
64053;BME280;50299;49.524;8.536;2023-05-19T11:48:05;100941.13;;;16.58;33.70
64053;BME280;50299;49.524;8.536;2023-05-19T11:50:36;100944.66;;;17.49;35.06
64053;BME280;50299;49.524;8.536;2023-05-19T11:53:03;100948.94;;;17.12;29.54
64053;BME280;50299;49.524;8.536;2023-05-19T11:55:33;100943.44;;;15.96;30.83
64053;BME280;50299;49.524;8.536;2023-05-19T11:58:02;100941.09;;;16.86;32.04
64053;BME280;50299;49.524;8.536;2023-05-19T12:00:36;100940.97;;;17.30;30.41
64053;BME280;50299;49.524;8.536;2023-05-19T12:03:04;100941.69;;;16.47;29.58
64053;BME280;50299;49.524;8.536;2023-05-19T12:05:32;100945.53;;;15.87;31.39
64053;BME280;50299;49.524;8.536;2023-05-19T12:08:07;100946.34;;;14.98;33.81
64053;BME280;50299;49.524;8.536;2023-05-19T12:10:34;100946.88;;;15.65;32.05
64053;BME280;50299;49.524;8.536;2023-05-19T12:13:01;100945.34;;;16.08;31.18
64053;BME280;50299;49.524;8.536;2023-05-19T12:15:28;100940.44;;;15.36;36.03
64053;BME280;50299;49.524;8.536;2023-05-19T12:17:57;100940.25;;;16.53;32.78
64053;BME280;50299;49.524;8.536;2023-05-19T12:20:28;100934.66;;;16.53;32.37
64053;BME280;50299;49.524;8.536;2023-05-19T12:22:58;100932.00;;;17.20;31.64
64053;BME280;50299;49.524;8.536;2023-05-19T12:25:25;100928.41;;;16.88;36.19
64053;BME280;50299;49.524;8.536;2023-05-19T12:27:57;100934.34;;;17.02;31.82
64053;BME280;50299;49.524;8.536;2023-05-19T12:30:28;100934.03;;;15.88;34.00
64053;BME280;50299;49.524;8.536;2023-05-19T12:32:55;100939.47;;;14.83;35.29
64053;BME280;50299;49.524;8.536;2023-05-19T12:35:31;100929.38;;;16.20;39.40
64053;BME280;50299;49.524;8.536;2023-05-19T12:38:07;100943.22;;;15.36;33.38
64053;BME280;50299;49.524;8.536;2023-05-19T12:40:34;100938.31;;;15.45;35.86
64053;BME280;50299;49.524;8.536;2023-05-19T12:43:02;100921.41;;;16.35;35.08
64053;BME280;50299;49.524;8.536;2023-05-19T12:45:33;100916.06;;;16.73;36.20
64053;BME280;50299;49.524;8.536;2023-05-19T12:48:13;100925.75;;;17.27;34.86
64053;BME280;50299;49.524;8.536;2023-05-19T12:50:43;100920.16;;;15.76;33.96
64053;BME280;50299;49.524;8.536;2023-05-19T12:53:10;100928.38;;;15.20;34.73
64053;BME280;50299;49.524;8.536;2023-05-19T12:55:41;100924.59;;;15.65;35.88
64053;BME280;50299;49.524;8.536;2023-05-19T12:58:12;100924.75;;;15.44;33.94
64053;BME280;50299;49.524;8.536;2023-05-19T13:00:43;100920.25;;;16.36;35.71
64053;BME280;50299;49.524;8.536;2023-05-19T13:03:18;100924.09;;;16.91;36.02
64053;BME280;50299;49.524;8.536;2023-05-19T13:05:49;100928.94;;;15.78;35.22
64053;BME280;50299;49.524;8.536;2023-05-19T13:08:18;100917.47;;;16.51;33.48
64053;BME280;50299;49.524;8.536;2023-05-19T13:10:46;100906.75;;;16.38;32.45
64053;BME280;50299;49.524;8.536;2023-05-19T13:13:12;100919.88;;;15.81;34.44
64053;BME280;50299;49.524;8.536;2023-05-19T13:15:41;100919.53;;;15.83;34.45
64053;BME280;50299;49.524;8.536;2023-05-19T13:18:09;100919.63;;;15.34;35.56
64053;BME280;50299;49.524;8.536;2023-05-19T13:20:37;100923.00;;;15.51;34.32
64053;BME280;50299;49.524;8.536;2023-05-19T13:23:04;100925.25;;;15.74;34.50
64053;BME280;50299;49.524;8.536;2023-05-19T13:25:32;100925.81;;;15.39;36.10
64053;BME280;50299;49.524;8.536;2023-05-19T13:28:00;100914.78;;;15.31;35.81
64053;BME280;50299;49.524;8.536;2023-05-19T13:30:30;100923.00;;;14.66;36.40
64053;BME280;50299;49.524;8.536;2023-05-19T13:32:57;100924.59;;;14.21;36.00
64053;BME280;50299;49.524;8.536;2023-05-19T13:35:25;100914.72;;;14.45;34.83
64053;BME280;50299;49.524;8.536;2023-05-19T13:37:51;100913.06;;;14.11;35.85
64053;BME280;50299;49.524;8.536;2023-05-19T13:40:18;100913.84;;;14.65;39.29
64053;BME280;50299;49.524;8.536;2023-05-19T13:42:44;100915.47;;;15.03;36.74
64053;BME280;50299;49.524;8.536;2023-05-19T13:45:12;100917.78;;;15.25;38.68
64053;BME280;50299;49.524;8.536;2023-05-19T13:47:38;100918.78;;;15.58;36.95
64053;BME280;50299;49.524;8.536;2023-05-19T13:50:05;100922.19;;;15.79;34.86
64053;BME280;50299;49.524;8.536;2023-05-19T13:52:32;100916.38;;;15.96;34.97
64053;BME280;50299;49.524;8.536;2023-05-19T13:54:58;100921.97;;;15.44;34.73
64053;BME280;50299;49.524;8.536;2023-05-19T13:57:25;100923.16;;;16.11;37.36
64053;BME280;50299;49.524;8.536;2023-05-19T13:59:54;100917.00;;;15.77;36.03
64053;BME280;50299;49.524;8.536;2023-05-19T14:02:28;100924.19;;;15.78;34.47
64053;BME280;50299;49.524;8.536;2023-05-19T14:04:55;100923.22;;;15.87;33.59
64053;BME280;50299;49.524;8.536;2023-05-19T14:07:22;100922.34;;;16.11;34.17
64053;BME280;50299;49.524;8.536;2023-05-19T14:09:48;100922.72;;;15.69;34.69
64053;BME280;50299;49.524;8.536;2023-05-19T14:12:16;100917.13;;;16.37;35.64
64053;BME280;50299;49.524;8.536;2023-05-19T14:14:43;100917.13;;;16.09;36.43
64053;BME280;50299;49.524;8.536;2023-05-19T14:17:09;100914.84;;;15.99;34.98
64053;BME280;50299;49.524;8.536;2023-05-19T14:19:36;100907.91;;;16.37;36.33
64053;BME280;50299;49.524;8.536;2023-05-19T14:22:03;100922.25;;;16.51;33.60
64053;BME280;50299;49.524;8.536;2023-05-19T14:24:29;100911.66;;;16.72;34.79
64053;BME280;50299;49.524;8.536;2023-05-19T14:26:56;100913.09;;;16.98;35.06
64053;BME280;50299;49.524;8.536;2023-05-19T14:29:22;100911.03;;;16.79;32.33
64053;BME280;50299;49.524;8.536;2023-05-19T14:31:49;100903.19;;;16.69;34.93
64053;BME280;50299;49.524;8.536;2023-05-19T14:34:15;100908.78;;;17.36;34.37
64053;BME280;50299;49.524;8.536;2023-05-19T14:36:46;100904.22;;;17.63;35.58
64053;BME280;50299;49.524;8.536;2023-05-19T14:39:14;100897.13;;;17.14;32.21